sensor_id;sensor_type;location;lat;lon;timestamp;P1;durP1;ratioP1;P2;durP2;ratioP2
33108;SDS011;19481;51.118;6.940;2022-12-10T00:04:28;29.95;;;13.77;;
33108;SDS011;19481;51.118;6.940;2022-12-10T00:09:29;33.47;;;14.35;;
33108;SDS011;19481;51.118;6.940;2022-12-10T00:14:31;31.70;;;14.85;;
33108;SDS011;19481;51.118;6.940;2022-12-10T00:19:34;29.60;;;14.25;;
33108;SDS011;19481;51.118;6.940;2022-12-10T00:24:36;31.63;;;14.00;;
33108;SDS011;19481;51.118;6.940;2022-12-10T00:29:37;30.73;;;14.38;;
33108;SDS011;19481;51.118;6.940;2022-12-10T00:34:40;30.75;;;14.15;;
33108;SDS011;19481;51.118;6.940;2022-12-10T00:39:42;26.30;;;13.35;;
33108;SDS011;19481;51.118;6.940;2022-12-10T00:44:43;32.15;;;14.35;;
33108;SDS011;19481;51.118;6.940;2022-12-10T00:49:46;31.55;;;13.50;;
33108;SDS011;19481;51.118;6.940;2022-12-10T00:54:48;31.40;;;12.93;;
33108;SDS011;19481;51.118;6.940;2022-12-10T00:59:49;36.95;;;14.25;;
33108;SDS011;19481;51.118;6.940;2022-12-10T01:04:53;33.42;;;14.35;;
33108;SDS011;19481;51.118;6.940;2022-12-10T01:09:55;31.55;;;13.63;;
33108;SDS011;19481;51.118;6.940;2022-12-10T01:14:56;35.33;;;14.75;;
33108;SDS011;19481;51.118;6.940;2022-12-10T01:19:59;31.42;;;14.13;;
33108;SDS011;19481;51.118;6.940;2022-12-10T01:25:01;32.33;;;14.38;;
33108;SDS011;19481;51.118;6.940;2022-12-10T01:30:03;35.10;;;14.50;;
33108;SDS011;19481;51.118;6.940;2022-12-10T01:35:07;30.02;;;13.73;;
33108;SDS011;19481;51.118;6.940;2022-12-10T01:40:09;29.40;;;13.77;;
33108;SDS011;19481;51.118;6.940;2022-12-10T01:45:11;27.02;;;12.73;;
33108;SDS011;19481;51.118;6.940;2022-12-10T01:50:15;30.13;;;13.13;;
33108;SDS011;19481;51.118;6.940;2022-12-10T02:00:55;29.58;;;13.18;;
33108;SDS011;19481;51.118;6.940;2022-12-10T02:06:10;26.77;;;12.85;;
33108;SDS011;19481;51.118;6.940;2022-12-10T02:11:24;32.67;;;13.57;;
33108;SDS011;19481;51.118;6.940;2022-12-10T02:16:31;26.75;;;11.82;;
33108;SDS011;19481;51.118;6.940;2022-12-10T02:21:40;29.30;;;12.93;;
33108;SDS011;19481;51.118;6.940;2022-12-10T02:26:43;39.00;;;13.70;;
33108;SDS011;19481;51.118;6.940;2022-12-10T02:31:50;30.40;;;13.23;;
33108;SDS011;19481;51.118;6.940;2022-12-10T02:36:54;29.35;;;13.18;;
33108;SDS011;19481;51.118;6.940;2022-12-10T02:41:58;30.52;;;12.05;;
33108;SDS011;19481;51.118;6.940;2022-12-10T02:47:04;30.52;;;13.30;;
33108;SDS011;19481;51.118;6.940;2022-12-10T02:52:08;27.88;;;12.57;;
33108;SDS011;19481;51.118;6.940;2022-12-10T02:57:14;28.33;;;12.93;;
33108;SDS011;19481;51.118;6.940;2022-12-10T03:02:24;31.05;;;13.18;;
33108;SDS011;19481;51.118;6.940;2022-12-10T03:07:33;28.50;;;12.88;;
33108;SDS011;19481;51.118;6.940;2022-12-10T03:12:39;20.87;;;9.47;;
33108;SDS011;19481;51.118;6.940;2022-12-10T03:17:47;28.30;;;12.80;;
33108;SDS011;19481;51.118;6.940;2022-12-10T03:22:50;32.05;;;13.77;;
33108;SDS011;19481;51.118;6.940;2022-12-10T03:27:53;34.80;;;13.32;;
33108;SDS011;19481;51.118;6.940;2022-12-10T03:32:57;29.10;;;13.07;;
33108;SDS011;19481;51.118;6.940;2022-12-10T03:37:59;28.80;;;12.20;;
33108;SDS011;19481;51.118;6.940;2022-12-10T03:43:01;28.15;;;13.45;;
33108;SDS011;19481;51.118;6.940;2022-12-10T03:48:05;31.85;;;13.98;;
33108;SDS011;19481;51.118;6.940;2022-12-10T03:53:06;34.08;;;14.30;;
33108;SDS011;19481;51.118;6.940;2022-12-10T03:58:08;29.85;;;14.45;;
33108;SDS011;19481;51.118;6.940;2022-12-10T04:03:11;28.10;;;12.88;;
33108;SDS011;19481;51.118;6.940;2022-12-10T04:08:12;29.75;;;13.05;;
33108;SDS011;19481;51.118;6.940;2022-12-10T04:13:15;33.05;;;13.95;;
33108;SDS011;19481;51.118;6.940;2022-12-10T04:18:43;28.43;;;12.83;;
33108;SDS011;19481;51.118;6.940;2022-12-10T04:23:45;31.90;;;13.20;;
33108;SDS011;19481;51.118;6.940;2022-12-10T04:29:04;31.00;;;12.90;;
33108;SDS011;19481;51.118;6.940;2022-12-10T04:34:09;25.55;;;12.52;;
33108;SDS011;19481;51.118;6.940;2022-12-10T04:39:11;25.08;;;12.43;;
33108;SDS011;19481;51.118;6.940;2022-12-10T04:44:14;28.80;;;12.68;;
33108;SDS011;19481;51.118;6.940;2022-12-10T04:49:17;29.73;;;13.10;;
33108;SDS011;19481;51.118;6.940;2022-12-10T04:54:19;29.60;;;12.98;;
33108;SDS011;19481;51.118;6.940;2022-12-10T04:59:20;23.05;;;12.88;;
33108;SDS011;19481;51.118;6.940;2022-12-10T05:04:23;32.08;;;13.23;;
33108;SDS011;19481;51.118;6.940;2022-12-10T05:09:25;33.45;;;14.10;;
33108;SDS011;19481;51.118;6.940;2022-12-10T05:14:27;32.50;;;13.40;;
33108;SDS011;19481;51.118;6.940;2022-12-10T05:19:30;27.02;;;13.25;;
33108;SDS011;19481;51.118;6.940;2022-12-10T05:24:32;34.13;;;14.07;;
33108;SDS011;19481;51.118;6.940;2022-12-10T05:29:34;35.60;;;14.30;;
33108;SDS011;19481;51.118;6.940;2022-12-10T05:34:37;29.00;;;13.75;;
33108;SDS011;19481;51.118;6.940;2022-12-10T05:39:38;32.03;;;14.07;;
33108;SDS011;19481;51.118;6.940;2022-12-10T05:44:40;35.15;;;13.15;;
33108;SDS011;19481;51.118;6.940;2022-12-10T05:49:43;30.45;;;13.93;;
33108;SDS011;19481;51.118;6.940;2022-12-10T05:54:48;34.30;;;14.23;;
33108;SDS011;19481;51.118;6.940;2022-12-10T05:59:49;27.85;;;13.32;;
33108;SDS011;19481;51.118;6.940;2022-12-10T06:04:52;28.08;;;13.68;;
33108;SDS011;19481;51.118;6.940;2022-12-10T06:09:54;29.08;;;14.25;;
33108;SDS011;19481;51.118;6.940;2022-12-10T06:14:55;33.35;;;13.95;;
33108;SDS011;19481;51.118;6.940;2022-12-10T06:19:58;32.47;;;13.60;;
33108;SDS011;19481;51.118;6.940;2022-12-10T06:25:00;25.33;;;12.82;;
33108;SDS011;19481;51.118;6.940;2022-12-10T06:30:05;31.35;;;13.57;;
33108;SDS011;19481;51.118;6.940;2022-12-10T06:35:12;33.60;;;14.05;;
33108;SDS011;19481;51.118;6.940;2022-12-10T06:40:13;30.33;;;14.40;;
33108;SDS011;19481;51.118;6.940;2022-12-10T06:45:15;30.63;;;14.20;;
33108;SDS011;19481;51.118;6.940;2022-12-10T06:50:18;33.08;;;13.48;;
33108;SDS011;19481;51.118;6.940;2022-12-10T06:55:20;29.98;;;13.82;;
33108;SDS011;19481;51.118;6.940;2022-12-10T07:00:21;33.13;;;14.05;;
33108;SDS011;19481;51.118;6.940;2022-12-10T07:05:24;29.35;;;14.27;;
33108;SDS011;19481;51.118;6.940;2022-12-10T07:10:26;30.13;;;13.50;;
33108;SDS011;19481;51.118;6.940;2022-12-10T07:15:27;29.63;;;12.93;;
33108;SDS011;19481;51.118;6.940;2022-12-10T07:20:30;33.55;;;13.85;;
33108;SDS011;19481;51.118;6.940;2022-12-10T07:25:32;30.13;;;13.00;;
33108;SDS011;19481;51.118;6.940;2022-12-10T07:30:34;38.53;;;15.05;;
33108;SDS011;19481;51.118;6.940;2022-12-10T07:35:38;33.25;;;13.98;;
33108;SDS011;19481;51.118;6.940;2022-12-10T07:40:40;31.35;;;13.77;;
33108;SDS011;19481;51.118;6.940;2022-12-10T07:45:42;30.98;;;12.50;;
33108;SDS011;19481;51.118;6.940;2022-12-10T07:50:45;27.92;;;13.50;;
33108;SDS011;19481;51.118;6.940;2022-12-10T07:55:46;29.40;;;13.20;;
33108;SDS011;19481;51.118;6.940;2022-12-10T08:00:48;26.55;;;14.00;;
33108;SDS011;19481;51.118;6.940;2022-12-10T08:06:01;32.00;;;14.50;;
33108;SDS011;19481;51.118;6.940;2022-12-10T08:11:04;33.22;;;14.10;;
33108;SDS011;19481;51.118;6.940;2022-12-10T08:16:07;43.92;;;15.00;;
33108;SDS011;19481;51.118;6.940;2022-12-10T08:21:13;34.60;;;15.32;;
33108;SDS011;19481;51.118;6.940;2022-12-10T08:26:16;40.45;;;16.17;;
33108;SDS011;19481;51.118;6.940;2022-12-10T08:31:19;45.88;;;18.38;;
33108;SDS011;19481;51.118;6.940;2022-12-10T08:36:23;45.30;;;16.65;;
33108;SDS011;19481;51.118;6.940;2022-12-10T08:41:25;46.28;;;17.05;;
33108;SDS011;19481;51.118;6.940;2022-12-10T08:46:26;48.63;;;18.15;;
33108;SDS011;19481;51.118;6.940;2022-12-10T08:51:29;50.97;;;19.02;;
33108;SDS011;19481;51.118;6.940;2022-12-10T08:56:31;54.50;;;19.50;;
33108;SDS011;19481;51.118;6.940;2022-12-10T09:01:33;52.65;;;18.73;;
33108;SDS011;19481;51.118;6.940;2022-12-10T09:06:36;50.83;;;20.10;;
33108;SDS011;19481;51.118;6.940;2022-12-10T09:11:37;60.30;;;19.80;;
33108;SDS011;19481;51.118;6.940;2022-12-10T09:16:39;50.40;;;18.83;;
33108;SDS011;19481;51.118;6.940;2022-12-10T09:21:43;51.15;;;20.75;;
33108;SDS011;19481;51.118;6.940;2022-12-10T09:26:44;60.72;;;19.90;;
33108;SDS011;19481;51.118;6.940;2022-12-10T09:31:49;54.88;;;19.52;;
33108;SDS011;19481;51.118;6.940;2022-12-10T09:36:52;49.58;;;19.15;;
33108;SDS011;19481;51.118;6.940;2022-12-10T09:41:56;61.92;;;20.67;;
33108;SDS011;19481;51.118;6.940;2022-12-10T09:47:18;59.30;;;19.48;;
33108;SDS011;19481;51.118;6.940;2022-12-10T09:52:22;55.20;;;20.38;;
33108;SDS011;19481;51.118;6.940;2022-12-10T09:57:25;55.08;;;19.45;;
33108;SDS011;19481;51.118;6.940;2022-12-10T10:02:31;54.58;;;20.05;;
33108;SDS011;19481;51.118;6.940;2022-12-10T10:07:34;62.10;;;22.45;;
33108;SDS011;19481;51.118;6.940;2022-12-10T10:12:39;59.53;;;20.65;;
33108;SDS011;19481;51.118;6.940;2022-12-10T10:17:41;61.65;;;20.67;;
33108;SDS011;19481;51.118;6.940;2022-12-10T10:22:47;57.35;;;20.67;;
33108;SDS011;19481;51.118;6.940;2022-12-10T10:27:49;59.70;;;21.55;;
33108;SDS011;19481;51.118;6.940;2022-12-10T10:32:51;61.65;;;20.83;;
33108;SDS011;19481;51.118;6.940;2022-12-10T10:38:00;60.13;;;20.15;;
33108;SDS011;19481;51.118;6.940;2022-12-10T10:43:06;63.72;;;20.88;;
33108;SDS011;19481;51.118;6.940;2022-12-10T10:48:15;62.60;;;21.42;;
33108;SDS011;19481;51.118;6.940;2022-12-10T10:53:21;56.45;;;20.27;;
33108;SDS011;19481;51.118;6.940;2022-12-10T10:58:31;61.90;;;21.50;;
33108;SDS011;19481;51.118;6.940;2022-12-10T11:03:33;60.55;;;20.70;;
33108;SDS011;19481;51.118;6.940;2022-12-10T11:08:38;55.25;;;20.88;;
33108;SDS011;19481;51.118;6.940;2022-12-10T11:13:40;58.03;;;20.45;;
33108;SDS011;19481;51.118;6.940;2022-12-10T11:18:42;67.35;;;21.58;;
33108;SDS011;19481;51.118;6.940;2022-12-10T11:23:55;60.13;;;21.25;;
33108;SDS011;19481;51.118;6.940;2022-12-10T11:29:01;53.53;;;20.35;;
33108;SDS011;19481;51.118;6.940;2022-12-10T11:34:12;55.40;;;20.45;;
33108;SDS011;19481;51.118;6.940;2022-12-10T11:39:24;60.85;;;20.50;;
33108;SDS011;19481;51.118;6.940;2022-12-10T11:44:42;56.35;;;20.70;;
33108;SDS011;19481;51.118;6.940;2022-12-10T11:49:52;55.83;;;21.50;;
33108;SDS011;19481;51.118;6.940;2022-12-10T11:55:05;58.53;;;20.40;;
33108;SDS011;19481;51.118;6.940;2022-12-10T12:00:18;50.42;;;19.23;;
33108;SDS011;19481;51.118;6.940;2022-12-10T12:05:27;41.30;;;15.02;;
33108;SDS011;19481;51.118;6.940;2022-12-10T12:10:59;44.28;;;17.63;;
33108;SDS011;19481;51.118;6.940;2022-12-10T12:21:14;42.42;;;14.98;;
33108;SDS011;19481;51.118;6.940;2022-12-10T12:26:20;43.58;;;16.83;;
33108;SDS011;19481;51.118;6.940;2022-12-10T12:31:29;35.20;;;14.93;;
33108;SDS011;19481;51.118;6.940;2022-12-10T12:41:39;28.77;;;14.25;;
33108;SDS011;19481;51.118;6.940;2022-12-10T12:51:48;37.83;;;15.23;;
33108;SDS011;19481;51.118;6.940;2022-12-10T12:56:55;40.92;;;16.40;;
33108;SDS011;19481;51.118;6.940;2022-12-10T13:02:06;43.10;;;17.10;;
33108;SDS011;19481;51.118;6.940;2022-12-10T13:07:32;45.67;;;18.90;;
33108;SDS011;19481;51.118;6.940;2022-12-10T13:12:46;44.65;;;17.15;;
33108;SDS011;19481;51.118;6.940;2022-12-10T13:18:03;43.78;;;17.23;;
33108;SDS011;19481;51.118;6.940;2022-12-10T13:23:28;42.50;;;18.33;;
33108;SDS011;19481;51.118;6.940;2022-12-10T13:28:40;45.05;;;17.35;;
33108;SDS011;19481;51.118;6.940;2022-12-10T13:33:51;41.63;;;16.75;;
33108;SDS011;19481;51.118;6.940;2022-12-10T13:39:12;47.47;;;16.05;;
33108;SDS011;19481;51.118;6.940;2022-12-10T13:44:36;44.40;;;17.85;;
33108;SDS011;19481;51.118;6.940;2022-12-10T13:49:47;38.25;;;16.38;;
33108;SDS011;19481;51.118;6.940;2022-12-10T13:54:58;41.72;;;17.83;;
33108;SDS011;19481;51.118;6.940;2022-12-10T14:00:13;49.17;;;16.65;;
33108;SDS011;19481;51.118;6.940;2022-12-10T14:05:32;42.35;;;18.02;;
33108;SDS011;19481;51.118;6.940;2022-12-10T14:10:49;40.80;;;17.42;;
33108;SDS011;19481;51.118;6.940;2022-12-10T14:15:53;41.03;;;15.32;;
33108;SDS011;19481;51.118;6.940;2022-12-10T14:20:57;41.97;;;17.08;;
33108;SDS011;19481;51.118;6.940;2022-12-10T14:26:04;41.60;;;15.82;;
33108;SDS011;19481;51.118;6.940;2022-12-10T14:31:12;48.08;;;18.65;;
33108;SDS011;19481;51.118;6.940;2022-12-10T14:36:20;44.33;;;17.58;;
33108;SDS011;19481;51.118;6.940;2022-12-10T14:41:27;51.00;;;17.73;;
33108;SDS011;19481;51.118;6.940;2022-12-10T14:46:32;46.88;;;17.77;;
33108;SDS011;19481;51.118;6.940;2022-12-10T14:51:36;51.40;;;16.83;;
33108;SDS011;19481;51.118;6.940;2022-12-10T14:56:38;42.00;;;16.83;;
33108;SDS011;19481;51.118;6.940;2022-12-10T15:01:42;38.35;;;14.98;;
33108;SDS011;19481;51.118;6.940;2022-12-10T15:06:48;42.50;;;15.73;;
33108;SDS011;19481;51.118;6.940;2022-12-10T15:11:52;38.03;;;15.48;;
33108;SDS011;19481;51.118;6.940;2022-12-10T15:16:56;36.88;;;16.45;;
33108;SDS011;19481;51.118;6.940;2022-12-10T15:21:59;34.72;;;15.30;;
33108;SDS011;19481;51.118;6.940;2022-12-10T15:27:02;40.95;;;14.80;;
33108;SDS011;19481;51.118;6.940;2022-12-10T15:32:19;35.60;;;14.63;;
33108;SDS011;19481;51.118;6.940;2022-12-10T15:37:27;37.60;;;16.33;;
33108;SDS011;19481;51.118;6.940;2022-12-10T15:42:37;29.57;;;12.57;;
33108;SDS011;19481;51.118;6.940;2022-12-10T15:47:42;40.53;;;17.25;;
33108;SDS011;19481;51.118;6.940;2022-12-10T15:52:43;38.05;;;15.88;;
33108;SDS011;19481;51.118;6.940;2022-12-10T15:57:45;38.78;;;16.17;;
33108;SDS011;19481;51.118;6.940;2022-12-10T16:02:50;36.13;;;15.05;;
33108;SDS011;19481;51.118;6.940;2022-12-10T16:07:55;40.35;;;16.00;;
33108;SDS011;19481;51.118;6.940;2022-12-10T16:13:03;35.90;;;16.05;;
33108;SDS011;19481;51.118;6.940;2022-12-10T16:23:11;35.20;;;16.48;;
33108;SDS011;19481;51.118;6.940;2022-12-10T16:28:14;34.53;;;16.98;;
33108;SDS011;19481;51.118;6.940;2022-12-10T16:33:19;39.35;;;16.70;;
33108;SDS011;19481;51.118;6.940;2022-12-10T16:38:21;40.17;;;17.23;;
33108;SDS011;19481;51.118;6.940;2022-12-10T16:43:24;36.67;;;15.68;;
33108;SDS011;19481;51.118;6.940;2022-12-10T16:48:30;40.33;;;16.13;;
33108;SDS011;19481;51.118;6.940;2022-12-10T16:53:32;42.30;;;16.50;;
33108;SDS011;19481;51.118;6.940;2022-12-10T16:58:35;37.30;;;15.07;;
33108;SDS011;19481;51.118;6.940;2022-12-10T17:03:38;37.65;;;15.57;;
33108;SDS011;19481;51.118;6.940;2022-12-10T17:08:40;38.55;;;16.15;;
33108;SDS011;19481;51.118;6.940;2022-12-10T17:13:42;42.47;;;16.75;;
33108;SDS011;19481;51.118;6.940;2022-12-10T17:18:46;39.70;;;17.80;;
33108;SDS011;19481;51.118;6.940;2022-12-10T17:23:47;41.50;;;17.50;;
33108;SDS011;19481;51.118;6.940;2022-12-10T17:28:49;41.22;;;18.08;;
33108;SDS011;19481;51.118;6.940;2022-12-10T17:33:53;41.47;;;17.02;;
33108;SDS011;19481;51.118;6.940;2022-12-10T17:38:55;45.45;;;17.23;;
33108;SDS011;19481;51.118;6.940;2022-12-10T17:43:57;41.05;;;17.92;;
33108;SDS011;19481;51.118;6.940;2022-12-10T17:49:00;37.78;;;16.67;;
33108;SDS011;19481;51.118;6.940;2022-12-10T17:54:01;42.72;;;16.50;;
33108;SDS011;19481;51.118;6.940;2022-12-10T17:59:03;34.65;;;16.23;;
33108;SDS011;19481;51.118;6.940;2022-12-10T18:04:07;38.72;;;16.77;;
33108;SDS011;19481;51.118;6.940;2022-12-10T18:09:09;43.28;;;17.52;;
33108;SDS011;19481;51.118;6.940;2022-12-10T18:14:12;43.38;;;16.80;;
33108;SDS011;19481;51.118;6.940;2022-12-10T18:19:15;36.20;;;16.13;;
33108;SDS011;19481;51.118;6.940;2022-12-10T18:24:17;40.60;;;18.02;;
33108;SDS011;19481;51.118;6.940;2022-12-10T18:29:19;38.75;;;17.13;;
33108;SDS011;19481;51.118;6.940;2022-12-10T18:34:22;41.28;;;17.52;;
33108;SDS011;19481;51.118;6.940;2022-12-10T18:39:26;39.97;;;17.55;;
33108;SDS011;19481;51.118;6.940;2022-12-10T18:44:31;39.28;;;16.85;;
33108;SDS011;19481;51.118;6.940;2022-12-10T18:49:34;35.75;;;14.93;;
33108;SDS011;19481;51.118;6.940;2022-12-10T18:54:37;35.35;;;15.73;;
33108;SDS011;19481;51.118;6.940;2022-12-10T18:59:40;35.75;;;14.68;;
33108;SDS011;19481;51.118;6.940;2022-12-10T19:04:43;32.03;;;13.57;;
33108;SDS011;19481;51.118;6.940;2022-12-10T19:09:45;29.48;;;13.38;;
33108;SDS011;19481;51.118;6.940;2022-12-10T19:14:48;30.08;;;13.15;;
33108;SDS011;19481;51.118;6.940;2022-12-10T19:19:51;35.78;;;15.20;;
33108;SDS011;19481;51.118;6.940;2022-12-10T19:24:52;33.53;;;14.68;;
33108;SDS011;19481;51.118;6.940;2022-12-10T19:29:54;32.45;;;13.85;;
33108;SDS011;19481;51.118;6.940;2022-12-10T19:34:57;35.63;;;13.10;;
33108;SDS011;19481;51.118;6.940;2022-12-10T19:39:58;28.25;;;14.35;;
33108;SDS011;19481;51.118;6.940;2022-12-10T19:45:00;30.13;;;14.30;;
33108;SDS011;19481;51.118;6.940;2022-12-10T19:50:03;30.27;;;13.82;;
33108;SDS011;19481;51.118;6.940;2022-12-10T19:55:06;30.80;;;13.35;;
33108;SDS011;19481;51.118;6.940;2022-12-10T20:00:11;32.85;;;13.90;;
33108;SDS011;19481;51.118;6.940;2022-12-10T20:10:20;25.80;;;12.57;;
33108;SDS011;19481;51.118;6.940;2022-12-10T20:15:24;31.90;;;13.43;;
33108;SDS011;19481;51.118;6.940;2022-12-10T20:20:27;36.78;;;13.15;;
33108;SDS011;19481;51.118;6.940;2022-12-10T20:25:30;29.23;;;12.82;;
33108;SDS011;19481;51.118;6.940;2022-12-10T20:30:31;27.58;;;12.88;;
33108;SDS011;19481;51.118;6.940;2022-12-10T20:35:34;33.45;;;14.02;;
33108;SDS011;19481;51.118;6.940;2022-12-10T20:40:37;27.00;;;13.25;;
33108;SDS011;19481;51.118;6.940;2022-12-10T20:45:39;30.90;;;13.52;;
33108;SDS011;19481;51.118;6.940;2022-12-10T20:50:43;33.83;;;13.13;;
33108;SDS011;19481;51.118;6.940;2022-12-10T20:55:44;35.67;;;14.00;;
33108;SDS011;19481;51.118;6.940;2022-12-10T21:00:46;34.13;;;14.00;;
33108;SDS011;19481;51.118;6.940;2022-12-10T21:05:49;30.05;;;12.65;;
33108;SDS011;19481;51.118;6.940;2022-12-10T21:10:51;31.48;;;13.52;;
33108;SDS011;19481;51.118;6.940;2022-12-10T21:15:54;35.08;;;15.02;;
33108;SDS011;19481;51.118;6.940;2022-12-10T21:20:59;35.60;;;13.40;;
33108;SDS011;19481;51.118;6.940;2022-12-10T21:26:01;38.05;;;13.77;;
33108;SDS011;19481;51.118;6.940;2022-12-10T21:31:03;35.72;;;13.57;;
33108;SDS011;19481;51.118;6.940;2022-12-10T21:36:07;29.30;;;12.90;;
33108;SDS011;19481;51.118;6.940;2022-12-10T21:41:11;30.92;;;13.70;;
33108;SDS011;19481;51.118;6.940;2022-12-10T21:46:35;37.00;;;13.60;;
33108;SDS011;19481;51.118;6.940;2022-12-10T21:51:40;35.63;;;13.88;;
33108;SDS011;19481;51.118;6.940;2022-12-10T21:56:41;36.75;;;14.40;;
33108;SDS011;19481;51.118;6.940;2022-12-10T22:01:43;33.65;;;14.50;;
33108;SDS011;19481;51.118;6.940;2022-12-10T22:06:46;34.42;;;12.85;;
33108;SDS011;19481;51.118;6.940;2022-12-10T22:11:47;41.50;;;14.13;;
33108;SDS011;19481;51.118;6.940;2022-12-10T22:16:49;38.45;;;13.93;;
33108;SDS011;19481;51.118;6.940;2022-12-10T22:21:52;46.25;;;14.75;;
33108;SDS011;19481;51.118;6.940;2022-12-10T22:26:53;34.13;;;13.65;;
33108;SDS011;19481;51.118;6.940;2022-12-10T22:31:55;38.78;;;13.68;;
33108;SDS011;19481;51.118;6.940;2022-12-10T22:36:58;43.17;;;14.38;;
33108;SDS011;19481;51.118;6.940;2022-12-10T22:41:59;36.58;;;13.45;;
33108;SDS011;19481;51.118;6.940;2022-12-10T22:47:01;41.97;;;13.13;;
33108;SDS011;19481;51.118;6.940;2022-12-10T22:52:04;33.90;;;12.00;;
33108;SDS011;19481;51.118;6.940;2022-12-10T22:57:05;37.38;;;13.35;;
33108;SDS011;19481;51.118;6.940;2022-12-10T23:02:07;40.45;;;12.57;;
33108;SDS011;19481;51.118;6.940;2022-12-10T23:07:10;36.53;;;12.40;;
33108;SDS011;19481;51.118;6.940;2022-12-10T23:12:11;39.28;;;13.60;;
33108;SDS011;19481;51.118;6.940;2022-12-10T23:17:31;34.42;;;12.65;;
33108;SDS011;19481;51.118;6.940;2022-12-10T23:22:34;36.90;;;12.55;;
33108;SDS011;19481;51.118;6.940;2022-12-10T23:27:35;36.90;;;12.23;;
33108;SDS011;19481;51.118;6.940;2022-12-10T23:32:37;31.77;;;11.80;;
33108;SDS011;19481;51.118;6.940;2022-12-10T23:37:41;43.33;;;14.23;;
33108;SDS011;19481;51.118;6.940;2022-12-10T23:42:43;40.60;;;13.63;;
33108;SDS011;19481;51.118;6.940;2022-12-10T23:47:44;37.95;;;13.00;;
33108;SDS011;19481;51.118;6.940;2022-12-10T23:52:47;44.88;;;13.00;;
33108;SDS011;19481;51.118;6.940;2022-12-10T23:57:49;42.28;;;13.90;;
